createdAt,value
2022-08-11T00:01:27.541Z,102203.88
2022-08-11T00:04:01.026Z,102198.97
2022-08-11T00:06:36.322Z,102199.27
2022-08-11T00:09:11.834Z,102205.52
2022-08-11T00:11:46.097Z,102206.64
2022-08-11T00:14:21.693Z,102204.49
2022-08-11T00:17:08.723Z,102202.87
2022-08-11T00:20:13.948Z,102204.23
2022-08-11T00:22:24.286Z,102207.77
2022-08-11T00:24:57.337Z,102207.77
2022-08-11T00:27:35.987Z,102204.50
2022-08-11T00:30:07.520Z,102211.31
2022-08-11T00:32:42.390Z,102205.33
2022-08-11T00:35:55.652Z,102200.43
2022-08-11T00:37:53.533Z,102203.73
2022-08-11T00:40:35.011Z,102200.19
2022-08-11T00:43:20.737Z,102205.95
2022-08-11T00:46:09.019Z,102204.34
2022-08-11T00:48:47.538Z,102201.91
2022-08-11T00:52:04.236Z,102201.09
2022-08-11T00:54:37.981Z,102202.99
2022-08-11T00:57:38.457Z,102208.20
2022-08-11T01:00:24.133Z,102204.94
2022-08-11T01:03:29.959Z,102208.50
2022-08-11T01:06:30.803Z,102209.34
2022-08-11T01:09:22.043Z,102206.34
2022-08-11T01:12:12.369Z,102209.08
2022-08-11T01:14:54.211Z,102206.64
2022-08-11T01:17:35.922Z,102203.11
2022-08-11T01:20:47.677Z,102212.09
2022-08-11T01:23:12.415Z,102204.46
2022-08-11T01:26:07.187Z,102204.73
2022-08-11T01:28:59.889Z,102207.18
2022-08-11T01:31:58.670Z,102204.75
2022-08-11T01:34:48.651Z,102197.94
2022-08-11T01:37:33.065Z,102201.78
2022-08-11T01:40:23.875Z,102197.96
2022-08-11T01:43:48.158Z,102196.34
2022-08-11T01:46:21.143Z,102196.89
2022-08-11T01:50:06.445Z,102193.88
2022-08-11T01:51:48.805Z,102195.52
2022-08-11T01:54:21.257Z,102191.98
2022-08-11T01:57:28.458Z,102200.16
2022-08-11T02:00:19.462Z,102199.06
2022-08-11T02:03:14.187Z,102194.43
2022-08-11T02:06:00.228Z,102202.86
2022-08-11T02:08:50.428Z,102201.23
2022-08-11T02:11:35.563Z,102193.63
2022-08-11T02:14:36.512Z,102202.86
2022-08-11T02:17:17.765Z,102199.59
2022-08-11T02:20:31.480Z,102203.12
2022-08-11T02:24:05.667Z,102198.79
2022-08-11T02:25:56.703Z,102188.98
2022-08-11T02:28:34.709Z,102192.53
2022-08-11T02:32:10.903Z,102190.61
2022-08-11T02:34:32.062Z,102183.27
2022-08-11T02:37:15.219Z,102181.64
2022-08-11T02:40:13.541Z,102186.55
2022-08-11T02:42:57.758Z,102184.91
2022-08-11T02:46:03.693Z,102190.61
2022-08-11T02:49:12.180Z,102191.16
2022-08-11T02:51:47.516Z,102181.92
2022-08-11T02:54:19.503Z,102184.36
2022-08-11T02:57:03.688Z,102185.14
2022-08-11T02:59:50.881Z,102189.50
2022-08-11T03:02:23.596Z,102191.89
2022-08-11T03:05:01.961Z,102188.64
2022-08-11T03:07:54.089Z,102190.82
2022-08-11T03:10:43.349Z,102187.53
2022-08-11T03:13:41.933Z,102189.73
2022-08-11T03:16:48.293Z,102182.17
2022-08-11T03:19:20.822Z,102185.44
2022-08-11T03:22:03.554Z,102180.27
2022-08-11T03:24:56.426Z,102178.36
2022-08-11T03:27:53.264Z,102180.83
2022-08-11T03:30:28.730Z,102187.33
2022-08-11T03:33:40.321Z,102191.16
2022-08-11T03:36:33.287Z,102189.50
2022-08-11T03:39:08.110Z,102183.00
2022-08-11T03:42:02.942Z,102185.17
2022-08-11T03:44:52.010Z,102181.91
2022-08-11T03:47:52.291Z,102183.55
2022-08-11T03:50:43.475Z,102177.83
2022-08-11T03:53:30.912Z,102180.25
2022-08-11T03:56:24.288Z,102176.14
2022-08-11T03:59:15.105Z,102185.09
2022-08-11T04:02:08.797Z,102185.34
2022-08-11T04:05:14.622Z,102181.81
2022-08-11T04:08:02.137Z,102178.28
2022-08-11T04:10:51.081Z,102184.23
2022-08-11T04:13:49.064Z,102184.23
2022-08-11T04:16:38.367Z,102178.55
2022-08-11T04:19:19.675Z,102181.27
2022-08-11T04:22:25.384Z,102180.16
2022-08-11T04:25:12.768Z,102176.89
2022-08-11T04:28:03.725Z,102178.25
2022-08-11T04:30:49.894Z,102180.41
2022-08-11T04:33:43.523Z,102179.89
2022-08-11T04:36:58.704Z,102183.97
2022-08-11T04:39:55.555Z,102178.83
2022-08-11T04:43:10.199Z,102180.20
2022-08-11T04:45:48.509Z,102175.58
2022-08-11T04:49:24.247Z,102178.58
2022-08-11T04:52:41.374Z,102176.95
2022-08-11T04:56:05.773Z,102175.05
2022-08-11T04:58:56.266Z,102171.84
2022-08-11T05:01:42.682Z,102173.75
2022-08-11T05:04:54.263Z,102175.13
2022-08-11T05:07:49.502Z,102173.50
2022-08-11T05:10:30.676Z,102174.05
2022-08-11T05:13:24.123Z,102172.14
2022-08-11T05:16:13.893Z,102179.20
2022-08-11T05:19:12.611Z,102177.30
2022-08-11T05:22:03.912Z,102177.55
2022-08-11T05:25:00.477Z,102178.62
2022-08-11T05:28:13.950Z,102179.97
2022-08-11T05:31:02.296Z,102178.83
2022-08-11T05:34:07.754Z,102180.07
2022-08-11T05:36:46.057Z,102182.65
2022-08-11T05:39:37.090Z,102190.48
2022-08-11T05:42:30.199Z,102187.11
2022-08-11T05:45:18.726Z,102184.53
2022-08-11T05:48:09.935Z,102181.19
2022-08-11T05:50:56.867Z,102184.83
2022-08-11T05:53:46.174Z,102189.20
2022-08-11T05:56:19.695Z,102190.30
2022-08-11T05:58:56.422Z,102199.16
2022-08-11T06:01:31.674Z,102200.69
2022-08-11T06:04:16.194Z,102201.80
2022-08-11T06:07:00.651Z,102193.12
2022-08-11T06:09:33.648Z,102193.59
2022-08-11T06:12:08.672Z,102195.17
2022-08-11T06:14:43.134Z,102194.74
2022-08-11T06:17:13.835Z,102190.86
2022-08-11T06:19:46.282Z,102199.23
2022-08-11T06:22:18.815Z,102190.13
2022-08-11T06:24:49.222Z,102194.66
2022-08-11T06:27:22.870Z,102196.81
2022-08-11T06:29:55.732Z,102201.00
2022-08-11T06:32:38.610Z,102202.08
2022-08-11T06:35:45.630Z,102201.38
2022-08-11T06:38:26.636Z,102203.73
2022-08-11T06:41:30.648Z,102198.05
2022-08-11T06:44:16.239Z,102201.89
2022-08-11T06:46:48.214Z,102195.63
2022-08-11T06:49:37.294Z,102198.19
2022-08-11T06:52:35.263Z,102200.08
2022-08-11T06:54:42.921Z,102196.61
2022-08-11T06:57:34.009Z,102198.56
2022-08-11T07:00:21.347Z,102197.36
2022-08-11T07:03:01.690Z,102195.99
2022-08-11T07:05:50.975Z,102196.30
2022-08-11T07:08:53.735Z,102202.59
2022-08-11T07:12:00.490Z,102200.01
2022-08-11T07:14:49.390Z,102194.34
2022-08-11T07:17:23.883Z,102195.71
2022-08-11T07:20:17.318Z,102197.28
2022-08-11T07:23:13.764Z,102196.16
2022-08-11T07:26:02.502Z,102196.91
2022-08-11T07:28:51.380Z,102200.95
2022-08-11T07:31:29.819Z,102199.52
2022-08-11T07:34:20.180Z,102202.11
2022-08-11T07:36:54.768Z,102202.14
2022-08-11T07:39:27.203Z,102200.00
2022-08-11T07:41:57.244Z,102204.61
2022-08-11T07:44:34.743Z,102201.61
2022-08-11T07:47:19.269Z,102198.91
2022-08-11T07:50:07.873Z,102198.79
2022-08-11T07:52:40.114Z,102202.33
2022-08-11T07:55:10.560Z,102209.75
2022-08-11T07:58:16.519Z,102207.00
2022-08-11T08:00:47.445Z,102202.95
2022-08-11T08:03:36.805Z,102205.45
2022-08-11T08:06:35.629Z,102200.31
2022-08-11T08:09:14.862Z,102204.16
2022-08-11T08:12:03.853Z,102202.00
2022-08-11T08:14:51.779Z,102200.53
2022-08-11T08:17:40.271Z,102204.77
2022-08-11T08:20:18.099Z,102207.97
2022-08-11T08:22:55.336Z,102210.09
2022-08-11T08:25:33.114Z,102207.48
2022-08-11T08:28:05.197Z,102207.65
2022-08-11T08:30:51.969Z,102204.98
2022-08-11T08:33:32.342Z,102206.50
2022-08-11T08:36:12.968Z,102201.06
2022-08-11T08:38:49.727Z,102201.56
2022-08-11T08:41:21.496Z,102203.68
2022-08-11T08:43:52.973Z,102200.26
2022-08-11T08:46:25.503Z,102197.62
2022-08-11T08:48:56.584Z,102198.98
2022-08-11T08:52:00.827Z,102195.94
2022-08-11T08:54:15.353Z,102193.98
2022-08-11T08:56:46.038Z,102187.46
2022-08-11T08:59:16.570Z,102192.42
2022-08-11T09:02:00.599Z,102189.82
2022-08-11T09:04:30.398Z,102186.60
2022-08-11T09:07:05.799Z,102198.10
2022-08-11T09:09:35.352Z,102199.78
2022-08-11T09:12:05.547Z,102199.78
2022-08-11T09:14:57.429Z,102194.16
2022-08-11T09:17:41.339Z,102194.16
2022-08-11T09:20:24.953Z,102184.32
2022-08-11T09:24:07.049Z,102184.32
2022-08-11T09:26:06.819Z,102189.73
2022-08-11T09:28:36.849Z,102189.73
2022-08-11T09:31:07.735Z,102195.54
2022-08-11T09:33:37.811Z,102187.13
2022-08-11T09:36:26.867Z,102184.19
2022-08-11T09:39:14.403Z,102187.53
2022-08-11T09:42:23.617Z,102186.31
2022-08-11T09:44:34.204Z,102180.69
2022-08-11T09:47:05.267Z,102176.98
2022-08-11T09:49:34.721Z,102181.88
2022-08-11T09:52:08.564Z,102179.06
2022-08-11T09:54:38.099Z,102178.73
2022-08-11T09:57:25.400Z,102175.70
2022-08-11T10:00:12.905Z,102177.11
2022-08-11T10:02:30.524Z,102170.34
2022-08-11T10:05:02.006Z,102174.94
2022-08-11T10:07:30.729Z,102172.47
2022-08-11T10:10:03.462Z,102176.44
2022-08-11T10:12:38.049Z,102174.19
2022-08-11T10:15:30.258Z,102173.76
2022-08-11T10:18:23.409Z,102173.31
2022-08-11T10:20:55.002Z,102167.02
2022-08-11T10:24:01.222Z,102170.23
2022-08-11T10:26:32.205Z,102163.34
2022-08-11T10:29:12.955Z,102167.25
2022-08-11T10:31:57.620Z,102163.84
2022-08-11T10:34:26.702Z,102162.80
2022-08-11T10:36:55.970Z,102162.16
2022-08-11T10:39:26.971Z,102161.03
2022-08-11T10:42:25.814Z,102153.02
2022-08-11T10:44:49.139Z,102154.66
2022-08-11T10:47:38.414Z,102154.52
2022-08-11T10:50:28.783Z,102156.34
2022-08-11T10:53:17.921Z,102154.13
2022-08-11T10:56:05.590Z,102150.95
2022-08-11T10:58:48.641Z,102150.52
2022-08-11T11:01:33.102Z,102141.31
2022-08-11T11:04:12.022Z,102130.72
2022-08-11T11:06:53.103Z,102136.34
2022-08-11T11:09:33.303Z,102134.13
2022-08-11T11:12:22.811Z,102127.33
2022-08-11T11:15:17.986Z,102123.31
2022-08-11T11:17:57.367Z,102116.27
2022-08-11T11:20:37.371Z,102122.86
2022-08-11T11:23:20.098Z,102124.46
2022-08-11T11:26:07.345Z,102123.12
2022-08-11T11:28:56.133Z,102121.09
2022-08-11T11:31:28.564Z,102116.31
2022-08-11T11:34:18.117Z,102111.18
2022-08-11T11:36:55.301Z,102109.70
2022-08-11T11:39:30.143Z,102111.70
2022-08-11T11:42:05.213Z,102119.25
2022-08-11T11:44:35.520Z,102109.86
2022-08-11T11:47:05.391Z,102104.32
2022-08-11T11:49:36.862Z,102102.81
2022-08-11T11:52:07.753Z,102107.70
2022-08-11T11:54:37.350Z,102111.25
2022-08-11T11:57:11.447Z,102106.63
2022-08-11T11:59:58.337Z,102100.00
2022-08-11T12:02:28.232Z,102094.27
2022-08-11T12:04:57.866Z,102093.58
2022-08-11T12:07:45.159Z,102077.37
2022-08-11T12:10:17.967Z,102077.32
2022-08-11T12:13:05.289Z,102078.00
2022-08-11T12:16:31.920Z,102078.22
2022-08-11T12:18:06.599Z,102076.90
2022-08-11T12:20:36.088Z,102073.16
2022-08-11T12:23:23.941Z,102077.84
2022-08-11T12:26:26.866Z,102068.71
2022-08-11T12:28:42.641Z,102062.38
2022-08-11T12:31:12.147Z,102065.58
2022-08-11T12:33:44.497Z,102061.04
2022-08-11T12:36:16.417Z,102060.64
2022-08-11T12:38:51.315Z,102055.55
2022-08-11T12:41:37.991Z,102052.04
2022-08-11T12:44:25.276Z,102048.28
2022-08-11T12:46:56.352Z,102049.33
2022-08-11T12:49:45.669Z,102052.75
2022-08-11T12:52:17.659Z,102049.80
2022-08-11T12:54:57.973Z,102040.02
2022-08-11T12:57:51.690Z,102036.42
2022-08-11T13:00:39.522Z,102035.45
2022-08-11T13:03:28.173Z,102039.23
2022-08-11T13:06:00.285Z,102029.38
2022-08-11T13:08:31.398Z,102030.53
2022-08-11T13:11:19.426Z,102028.02
2022-08-11T13:13:52.311Z,102018.89
2022-08-11T13:16:24.533Z,102024.54
2022-08-11T13:18:53.973Z,102009.89
2022-08-11T13:21:23.968Z,102014.56
2022-08-11T13:24:01.143Z,102004.82
2022-08-11T13:26:43.408Z,102004.93
2022-08-11T13:28:57.997Z,102000.84
2022-08-11T13:31:27.357Z,102002.13
2022-08-11T13:33:56.921Z,102003.34
2022-08-11T13:36:28.156Z,101998.11
2022-08-11T13:39:00.004Z,102001.64
2022-08-11T13:41:42.005Z,101997.91
2022-08-11T13:44:17.466Z,101996.66
2022-08-11T13:46:47.706Z,101997.70
2022-08-11T13:49:19.423Z,102001.92
2022-08-11T13:51:49.004Z,101993.69
2022-08-11T13:54:20.208Z,101983.92
2022-08-11T13:56:52.764Z,101985.75
2022-08-11T13:59:30.053Z,101994.94
2022-08-11T14:02:28.505Z,101991.72
2022-08-11T14:04:49.905Z,101989.14
2022-08-11T14:07:25.260Z,101979.73
2022-08-11T14:09:59.455Z,101976.75
2022-08-11T14:12:51.923Z,101969.27
2022-08-11T14:15:26.928Z,101973.50
2022-08-11T14:18:07.764Z,101962.66
2022-08-11T14:20:58.063Z,101960.50
2022-08-11T14:23:41.677Z,101962.69
2022-08-11T14:26:23.975Z,101961.73
2022-08-11T14:29:02.396Z,101961.91
2022-08-11T14:31:33.828Z,101962.89
2022-08-11T14:34:05.664Z,101947.63
2022-08-11T14:36:38.450Z,101955.98
2022-08-11T14:39:13.653Z,101949.97
2022-08-11T14:42:11.754Z,101951.73
2022-08-11T14:44:54.555Z,101949.20
2022-08-11T14:47:25.672Z,101949.58
2022-08-11T14:49:59.476Z,101943.98
2022-08-11T14:52:28.160Z,101947.57
2022-08-11T14:55:15.841Z,101939.95
2022-08-11T14:58:04.663Z,101940.38
2022-08-11T15:00:18.375Z,101938.42
2022-08-11T15:03:09.213Z,101938.27
2022-08-11T15:05:52.426Z,101928.40
2022-08-11T15:08:16.769Z,101930.89
2022-08-11T15:10:49.972Z,101924.84
2022-08-11T15:13:21.097Z,101925.14
2022-08-11T15:16:08.841Z,101929.55
2022-08-11T15:18:39.045Z,101924.51
2022-08-11T15:21:26.373Z,101917.02
2022-08-11T15:24:13.605Z,101921.78
2022-08-11T15:27:01.646Z,101912.13
2022-08-11T15:29:50.212Z,101917.76
2022-08-11T15:32:24.703Z,101913.23
2022-08-11T15:35:19.920Z,101913.94
2022-08-11T15:37:52.773Z,101914.09
2022-08-11T15:40:45.665Z,101906.45
2022-08-11T15:43:41.763Z,101908.69
2022-08-11T15:46:14.174Z,101910.66
2022-08-11T15:48:46.301Z,101904.94
2022-08-11T15:51:25.171Z,101905.05
2022-08-11T15:53:56.614Z,101898.52
2022-08-11T15:56:28.722Z,101894.16
2022-08-11T15:59:42.367Z,101898.09
2022-08-11T16:02:08.226Z,101889.69
2022-08-11T16:04:38.756Z,101892.47
2022-08-11T16:07:13.110Z,101892.86
2022-08-11T16:10:00.910Z,101892.05
2022-08-11T16:12:33.476Z,101889.00
2022-08-11T16:15:23.630Z,101881.51
2022-08-11T16:17:58.716Z,101878.48
2022-08-11T16:20:29.901Z,101879.94
2022-08-11T16:23:02.856Z,101872.27
2022-08-11T16:27:01.791Z,101870.93
2022-08-11T16:28:08.284Z,101874.77
2022-08-11T16:30:41.665Z,101868.74
2022-08-11T16:33:49.491Z,101871.98
2022-08-11T16:36:00.437Z,101863.59
2022-08-11T16:38:36.311Z,101865.23
2022-08-11T16:41:13.714Z,101863.52
2022-08-11T16:44:04.001Z,101851.41
2022-08-11T16:46:47.612Z,101848.72
2022-08-11T16:49:32.831Z,101845.16
2022-08-11T16:52:02.563Z,101847.14
2022-08-11T16:54:34.183Z,101845.25
2022-08-11T16:57:27.064Z,101841.44
2022-08-11T16:59:58.632Z,101843.87
2022-08-11T17:02:49.214Z,101847.03
2022-08-11T17:05:54.292Z,101836.93
2022-08-11T17:08:28.631Z,101830.45
2022-08-11T17:11:20.991Z,101837.41
2022-08-11T17:14:05.581Z,101835.42
2022-08-11T17:16:40.622Z,101829.47
2022-08-11T17:19:15.178Z,101829.36
2022-08-11T17:22:05.322Z,101828.81
2022-08-11T17:24:40.278Z,101834.03
2022-08-11T17:27:10.249Z,101830.19
2022-08-11T17:29:53.557Z,101834.14
2022-08-11T17:32:55.863Z,101831.30
2022-08-11T17:35:31.661Z,101827.48
2022-08-11T17:38:13.363Z,101833.00
2022-08-11T17:41:06.522Z,101832.63
2022-08-11T17:43:53.941Z,101832.38
2022-08-11T17:46:40.925Z,101832.52
2022-08-11T17:49:12.615Z,101830.75
2022-08-11T17:52:01.756Z,101832.79
2022-08-11T17:54:50.948Z,101829.75
2022-08-11T17:57:38.406Z,101831.41
2022-08-11T18:00:08.669Z,101832.38
2022-08-11T18:03:05.041Z,101833.13
2022-08-11T18:05:38.693Z,101830.05
2022-08-11T18:08:28.103Z,101829.48
2022-08-11T18:11:21.571Z,101837.23
2022-08-11T18:14:05.468Z,101837.84
2022-08-11T18:16:52.610Z,101837.86
2022-08-11T18:19:39.367Z,101848.84
2022-08-11T18:22:28.861Z,101842.08
2022-08-11T18:25:21.902Z,101837.63
2022-08-11T18:28:11.451Z,101844.67
2022-08-11T18:31:03.668Z,101844.84
2022-08-11T18:34:06.318Z,101841.18
2022-08-11T18:36:45.581Z,101847.63
2022-08-11T18:39:33.426Z,101846.62
2022-08-11T18:42:29.403Z,101844.69
2022-08-11T18:45:13.433Z,101844.69
2022-08-11T18:48:01.270Z,101837.77
2022-08-11T18:50:58.476Z,101850.98
2022-08-11T18:53:38.995Z,101854.98
2022-08-11T18:56:26.433Z,101851.50
2022-08-11T18:59:15.204Z,101856.50
2022-08-11T19:02:02.518Z,101855.02
2022-08-11T19:04:49.755Z,101856.84
2022-08-11T19:07:38.431Z,101860.44
2022-08-11T19:10:25.774Z,101862.19
2022-08-11T19:13:13.447Z,101857.27
2022-08-11T19:16:01.479Z,101861.56
2022-08-11T19:18:52.460Z,101859.88
2022-08-11T19:21:42.488Z,101859.10
2022-08-11T19:24:30.542Z,101871.00
2022-08-11T19:27:18.763Z,101871.91
2022-08-11T19:30:13.214Z,101872.41
2022-08-11T19:32:55.497Z,101878.34
2022-08-11T19:35:44.081Z,101874.48
2022-08-11T19:38:31.957Z,101876.64
2022-08-11T19:41:52.319Z,101889.14
2022-08-11T19:44:08.712Z,101882.92
2022-08-11T19:46:58.663Z,101887.58
2022-08-11T19:49:47.541Z,101885.43
2022-08-11T19:52:35.189Z,101876.12
2022-08-11T19:55:23.177Z,101884.30
2022-08-11T19:58:11.181Z,101887.06
2022-08-11T20:01:00.167Z,101890.31
2022-08-11T20:03:47.250Z,101899.62
2022-08-11T20:06:35.776Z,101897.41
2022-08-11T20:09:24.905Z,101892.06
2022-08-11T20:12:14.427Z,101899.27
2022-08-11T20:15:04.838Z,101899.52
2022-08-11T20:17:54.398Z,101903.52
2022-08-11T20:20:42.411Z,101901.66
2022-08-11T20:23:31.879Z,101902.78
2022-08-11T20:26:30.712Z,101906.18
2022-08-11T20:29:10.514Z,101897.98
2022-08-11T20:31:58.038Z,101897.55
2022-08-11T20:34:44.847Z,101901.61
2022-08-11T20:37:32.767Z,101897.54
2022-08-11T20:40:23.688Z,101896.98
2022-08-11T20:44:06.573Z,101904.27
2022-08-11T20:45:59.516Z,101905.02
2022-08-11T20:48:47.366Z,101910.27
2022-08-11T20:51:38.605Z,101904.34
2022-08-11T21:00:03.253Z,101908.45
2022-08-11T21:02:51.727Z,101908.70
2022-08-11T21:06:10.071Z,101903.66
2022-08-11T21:08:29.063Z,101907.41
2022-08-11T21:11:27.607Z,101907.97
2022-08-11T21:14:07.127Z,101905.03
2022-08-11T21:16:57.186Z,101908.27
2022-08-11T21:20:00.360Z,101909.62
2022-08-11T21:22:59.129Z,101904.27
2022-08-11T21:25:31.548Z,101910.51
2022-08-11T21:28:21.480Z,101902.45
2022-08-11T21:31:09.873Z,101906.03
2022-08-11T21:33:58.400Z,101903.25
2022-08-11T21:36:45.816Z,101900.89
2022-08-11T21:39:36.110Z,101898.27
2022-08-11T21:42:25.216Z,101895.88
2022-08-11T21:45:16.022Z,101899.48
2022-08-11T21:48:04.005Z,101896.46
2022-08-11T21:50:51.042Z,101893.67
2022-08-11T21:53:39.031Z,101903.67
2022-08-11T21:56:28.443Z,101904.44
2022-08-11T21:59:17.024Z,101900.34
2022-08-11T22:02:12.510Z,101898.78
2022-08-11T22:04:59.147Z,101897.39
2022-08-11T22:07:47.260Z,101901.46
2022-08-11T22:10:41.862Z,101896.95
2022-08-11T22:13:26.936Z,101902.23
2022-08-11T22:16:15.680Z,101907.80
2022-08-11T22:19:05.056Z,101903.94
2022-08-11T22:22:03.108Z,101901.27
2022-08-11T22:24:45.895Z,101895.80
2022-08-11T22:27:35.086Z,101898.91
2022-08-11T22:30:29.222Z,101896.11
2022-08-11T22:33:25.553Z,101901.49
2022-08-11T22:36:09.160Z,101899.13
2022-08-11T22:38:57.795Z,101901.74
2022-08-11T22:41:47.833Z,101896.86
2022-08-11T22:44:35.333Z,101898.07
2022-08-11T22:47:25.103Z,101901.86
2022-08-11T22:50:16.641Z,101895.09
2022-08-11T22:53:04.303Z,101892.66
2022-08-11T22:55:53.638Z,101901.45
2022-08-11T22:58:43.010Z,101893.34
2022-08-11T23:01:36.237Z,101894.45
2022-08-11T23:04:27.324Z,101894.30
2022-08-11T23:07:50.377Z,101895.19
2022-08-11T23:10:05.071Z,101889.78
2022-08-11T23:12:54.713Z,101885.16
2022-08-11T23:15:42.238Z,101891.48
2022-08-11T23:18:33.415Z,101891.23
2022-08-11T23:21:21.071Z,101885.85
2022-08-11T23:24:09.730Z,101886.77
2022-08-11T23:26:58.266Z,101895.41
2022-08-11T23:29:47.425Z,101884.23
2022-08-11T23:32:34.812Z,101888.58
2022-08-11T23:35:38.074Z,101886.34
2022-08-11T23:38:12.553Z,101888.43
2022-08-11T23:40:59.679Z,101891.70
2022-08-11T23:43:51.115Z,101893.89
2022-08-11T23:46:40.502Z,101886.87
2022-08-11T23:49:28.957Z,101892.35
2022-08-11T23:52:16.301Z,101894.34
2022-08-11T23:55:05.716Z,101897.96
2022-08-11T23:57:57.349Z,101897.66
